Time;durP1;ratioP1;P1;durP2;ratioP2;P2;SDS_P1;SDS_P2;PMS_P1;PMS_P2;Temp;Humidity;BMP_temperature;BMP_pressure;BME280_temperature;BME280_humidity;BME280_pressure;Samples;Min_cycle;Max_cycle;Signal;HPM_P1;HPM_P2
2022/06/05 00:01:03;;;;;;;17.05;11.40;;;23.70;99.90;;;;;;4859354;29;20117;-79
2022/06/05 00:03:49;;;;;;;15.45;9.20;;;23.90;99.90;;;;;;4858309;29;20064;-79
2022/06/05 00:06:55;;;;;;;17.73;8.82;;;23.80;99.90;;;;;;4859160;29;20533;-79
2022/06/05 00:10:05;;;;;;;15.90;8.60;;;23.80;99.90;;;;;;4859674;29;20109;-78
2022/06/05 00:13:34;;;;;;;132.27;90.70;;;23.80;99.90;;;;;;4861358;29;20056;-79
2022/06/05 00:16:24;;;;;;;43.45;29.92;;;23.80;99.90;;;;;;4822281;29;20883;-79
2022/06/05 00:19:10;;;;;;;20.83;13.35;;;23.70;99.90;;;;;;4821303;29;20050;-78
2022/06/05 00:21:56;;;;;;;26.88;16.98;;;23.60;99.90;;;;;;4846317;29;20049;-79
2022/06/05 00:24:42;;;;;;;14.93;9.85;;;23.50;99.90;;;;;;4852897;29;20223;-78
2022/06/05 00:27:31;;;;;;;13.77;8.30;;;23.30;99.90;;;;;;4852131;29;20065;-80
2022/06/05 00:30:30;;;;;;;13.95;7.85;;;23.20;99.90;;;;;;4853002;29;20059;-78
2022/06/05 00:33:31;;;;;;;15.25;7.35;;;23.30;99.90;;;;;;4843280;29;20056;-78
2022/06/05 00:36:26;;;;;;;16.27;8.18;;;23.40;99.90;;;;;;4843388;29;20379;-79
2022/06/05 00:39:21;;;;;;;13.48;7.57;;;23.50;99.90;;;;;;4843784;29;20086;-78
2022/06/05 00:42:12;;;;;;;10.63;6.95;;;23.40;99.90;;;;;;4843984;29;20049;-80
2022/06/05 00:45:04;;;;;;;13.73;6.60;;;23.40;99.90;;;;;;4843060;29;20194;-80
2022/06/05 00:47:50;;;;;;;15.35;7.40;;;23.30;99.90;;;;;;4843913;29;20414;-81
2022/06/05 00:50:37;;;;;;;27.13;5.97;;;23.40;99.90;;;;;;4843710;29;20057;-81
2022/06/05 00:53:23;;;;;;;15.45;6.65;;;23.00;99.90;;;;;;4843493;29;20126;-80
2022/06/05 00:56:11;;;;;;;10.68;6.15;;;22.80;99.90;;;;;;4843655;29;20133;-80
2022/06/05 00:58:58;;;;;;;8.70;5.82;;;22.70;99.90;;;;;;4843542;29;20061;-81
2022/06/05 01:01:44;;;;;;;10.32;6.60;;;22.70;99.90;;;;;;4842584;29;20066;-80
2022/06/05 01:04:32;;;;;;;12.70;6.45;;;22.60;99.90;;;;;;4843604;29;20202;-81
2022/06/05 01:07:20;;;;;;;14.77;7.40;;;22.90;99.90;;;;;;4843387;29;20053;-81
2022/06/05 01:10:07;;;;;;;16.40;7.50;;;22.90;99.90;;;;;;4842454;29;20068;-80
2022/06/05 01:13:19;;;;;;;15.10;7.45;;;22.70;99.90;;;;;;4843691;29;20095;-81
2022/06/05 01:16:23;;;;;;;12.52;6.82;;;23.10;99.90;;;;;;4843976;29;20057;-81
2022/06/05 01:19:40;;;;;;;11.98;6.80;;;23.10;99.90;;;;;;4843407;29;20068;-81
2022/06/05 01:22:39;;;;;;;19.42;6.85;;;22.90;99.90;;;;;;4842713;29;20078;-80
2022/06/05 01:25:31;;;;;;;9.65;6.22;;;22.90;99.90;;;;;;4861328;29;20586;-81
2022/06/05 01:28:20;;;;;;;12.40;8.18;;;23.20;99.90;;;;;;4861310;29;20409;-79
2022/06/05 01:31:18;;;;;;;11.13;7.00;;;23.00;99.90;;;;;;4862305;29;20061;-78
2022/06/05 01:34:25;;;;;;;10.50;6.90;;;23.10;99.90;;;;;;4861035;29;20060;-79
2022/06/05 01:37:26;;;;;;;14.43;7.10;;;23.00;99.90;;;;;;4861839;29;20088;-79
2022/06/05 01:40:15;;;;;;;10.00;6.70;;;22.80;99.90;;;;;;4861324;29;20056;-79
2022/06/05 01:43:12;;;;;;;13.63;6.85;;;22.60;99.90;;;;;;4861306;29;20536;-78
2022/06/05 01:46:14;;;;;;;11.70;6.40;;;22.40;99.90;;;;;;4861155;29;20060;-77
2022/06/05 01:49:11;;;;;;;12.38;6.40;;;22.40;99.90;;;;;;4861240;29;20141;-77
2022/06/05 01:51:59;;;;;;;11.07;6.38;;;22.60;99.90;;;;;;4860960;29;20056;-78
2022/06/05 01:55:15;;;;;;;12.52;6.13;;;22.60;99.90;;;;;;4861036;29;20101;-77
2022/06/05 01:58:05;;;;;;;19.35;6.55;;;22.50;99.90;;;;;;4861151;29;20064;-76
2022/06/05 02:00:54;;;;;;;11.65;6.05;;;22.30;99.90;;;;;;4861599;29;20088;-76
2022/06/05 02:03:48;;;;;;;14.75;6.35;;;22.10;99.90;;;;;;4860710;29;20566;-78
2022/06/05 02:06:48;;;;;;;10.35;6.65;;;22.10;99.90;;;;;;4860719;29;20056;-77
2022/06/05 02:09:36;;;;;;;12.35;6.43;;;22.00;99.90;;;;;;4860701;29;20085;-76
2022/06/05 02:12:23;;;;;;;13.25;6.97;;;22.00;99.90;;;;;;4860899;29;20073;-79
2022/06/05 02:15:09;;;;;;;11.27;6.82;;;22.00;99.90;;;;;;4860464;29;20182;-80
2022/06/05 02:17:57;;;;;;;11.75;6.72;;;21.80;99.90;;;;;;4860502;29;20060;-79
2022/06/05 02:20:44;;;;;;;15.35;6.47;;;21.80;99.90;;;;;;4860459;29;20069;-80
2022/06/05 02:23:37;;;;;;;11.35;6.85;;;21.90;99.90;;;;;;4858893;29;20185;-80
2022/06/05 02:26:25;;;;;;;11.27;6.95;;;21.90;99.90;;;;;;4842619;29;20053;-77
2022/06/05 02:29:22;;;;;;;9.77;6.60;;;21.90;99.90;;;;;;4841890;29;20238;-78
2022/06/05 02:32:34;;;;;;;9.82;6.03;;;21.90;99.90;;;;;;4842268;29;20088;-79
2022/06/05 02:35:41;;;;;;;12.95;6.45;;;22.00;99.90;;;;;;4840920;29;20070;-78
2022/06/05 02:38:39;;;;;;;9.60;6.45;;;22.00;99.90;;;;;;4842355;29;20053;-77
2022/06/05 02:41:36;;;;;;;12.15;6.88;;;21.80;99.90;;;;;;4841952;29;20410;-78
2022/06/05 02:44:34;;;;;;;14.63;6.85;;;21.40;99.90;;;;;;4841994;29;20094;-76
2022/06/05 02:47:23;;;;;;;10.23;6.60;;;21.20;99.90;;;;;;4841870;29;20178;-77
2022/06/05 02:50:16;;;;;;;19.52;7.10;;;21.20;99.90;;;;;;4841448;29;20065;-80
2022/06/05 02:53:05;;;;;;;12.20;6.95;;;21.70;99.90;;;;;;4840627;29;20187;-79
2022/06/05 02:55:51;;;;;;;12.65;7.40;;;21.80;99.90;;;;;;4842134;29;20052;-80
2022/06/05 02:58:37;;;;;;;9.07;6.60;;;21.70;99.90;;;;;;4841723;29;20160;-79
2022/06/05 03:04:28;;;;;;;12.45;6.20;;;21.50;99.90;;;;;;4841720;29;20154;-78
2022/06/05 03:07:14;;;;;;;27.17;8.40;;;21.70;99.90;;;;;;4841878;29;20523;-78
2022/06/05 03:10:00;;;;;;;12.70;6.30;;;21.80;99.90;;;;;;4841610;29;20537;-78
2022/06/05 03:12:46;;;;;;;10.35;6.65;;;21.90;99.90;;;;;;4841592;29;20060;-78
2022/06/05 03:15:33;;;;;;;10.57;6.65;;;21.80;99.90;;;;;;4841550;29;20060;-79
2022/06/05 03:18:19;;;;;;;10.40;6.72;;;21.50;99.90;;;;;;4841434;29;20064;-80
2022/06/05 03:21:06;;;;;;;15.18;7.30;;;21.80;99.90;;;;;;4841615;29;20066;-79
2022/06/05 03:23:51;;;;;;;12.05;6.68;;;21.90;99.90;;;;;;4843656;29;20053;-79
2022/06/05 03:26:37;;;;;;;14.30;6.88;;;21.80;99.90;;;;;;4858626;29;20052;-78
2022/06/05 03:29:23;;;;;;;11.15;6.20;;;21.70;99.90;;;;;;4859423;29;20791;-77
2022/06/05 03:32:09;;;;;;;11.73;6.90;;;21.70;99.90;;;;;;4859356;29;20089;-79
2022/06/05 03:34:55;;;;;;;11.00;7.70;;;21.60;99.90;;;;;;4859425;29;20056;-78
2022/06/05 03:37:41;;;;;;;13.68;7.25;;;21.80;99.90;;;;;;4859556;29;20061;-78
2022/06/05 03:40:27;;;;;;;9.48;6.30;;;21.80;99.90;;;;;;4859196;29;20064;-79
2022/06/05 03:43:14;;;;;;;11.13;6.72;;;21.90;99.90;;;;;;4859607;29;20056;-78
2022/06/05 03:46:18;;;;;;;13.20;7.15;;;21.90;99.90;;;;;;4858881;29;20056;-77
2022/06/05 03:49:04;;;;;;;15.15;8.02;;;21.80;99.90;;;;;;4858234;29;20136;-78
2022/06/05 03:51:50;;;;;;;14.80;7.90;;;21.90;99.90;;;;;;4859262;29;20064;-79
2022/06/05 03:54:37;;;;;;;12.98;6.95;;;21.60;99.90;;;;;;4859232;29;20052;-79
2022/06/05 03:57:23;;;;;;;13.70;8.20;;;21.80;99.90;;;;;;4858979;29;20056;-79
2022/06/05 04:00:10;;;;;;;14.02;8.05;;;21.90;99.90;;;;;;4859789;29;20069;-79
2022/06/05 04:02:56;;;;;;;11.98;7.57;;;22.00;99.90;;;;;;4857889;29;20051;-80
2022/06/05 04:05:43;;;;;;;12.77;8.45;;;22.20;99.90;;;;;;4859519;29;20098;-79
2022/06/05 04:08:29;;;;;;;13.65;7.95;;;22.10;99.90;;;;;;4859123;29;20122;-78
2022/06/05 04:11:18;;;;;;;16.90;8.18;;;22.10;99.90;;;;;;4859348;29;20183;-79
2022/06/05 04:14:05;;;;;;;21.02;9.40;;;22.00;99.90;;;;;;4859015;29;20053;-78
2022/06/05 04:16:50;;;;;;;11.80;8.52;;;22.00;99.90;;;;;;4859304;29;20528;-80
2022/06/05 04:19:36;;;;;;;16.40;8.38;;;22.10;99.90;;;;;;4858763;29;20142;-79
2022/06/05 04:22:22;;;;;;;14.25;8.10;;;22.20;99.90;;;;;;4858963;29;20139;-79
2022/06/05 04:25:11;;;;;;;16.95;10.02;;;22.10;99.90;;;;;;4847987;29;20076;-79
2022/06/05 04:27:57;;;;;;;17.70;8.38;;;22.10;99.90;;;;;;4839921;29;20085;-80
2022/06/05 04:30:43;;;;;;;15.48;7.82;;;22.40;99.90;;;;;;4841038;29;20052;-79
2022/06/05 04:33:31;;;;;;;15.57;8.43;;;22.50;99.90;;;;;;4840211;29;20422;-79
2022/06/05 04:36:17;;;;;;;12.88;8.65;;;22.50;99.90;;;;;;4840969;29;20192;-78
2022/06/05 04:39:04;;;;;;;14.68;8.82;;;22.40;99.90;;;;;;4840580;29;20403;-79
2022/06/05 04:41:50;;;;;;;15.05;9.70;;;22.60;99.90;;;;;;4840522;29;20084;-79
2022/06/05 04:44:36;;;;;;;13.23;8.50;;;22.50;99.90;;;;;;4840323;29;20509;-78
2022/06/05 04:47:22;;;;;;;18.48;9.32;;;22.50;99.90;;;;;;4840582;29;20620;-78
2022/06/05 04:50:08;;;;;;;15.10;9.40;;;22.50;99.90;;;;;;4840608;29;20407;-79
2022/06/05 04:52:54;;;;;;;14.20;10.40;;;22.70;99.90;;;;;;4839203;29;20114;-80
2022/06/05 04:55:39;;;;;;;19.70;12.20;;;22.70;99.90;;;;;;4840644;29;20065;-78
2022/06/05 04:58:25;;;;;;;16.98;12.32;;;22.60;99.90;;;;;;4842886;29;20133;-79
2022/06/05 05:01:13;;;;;;;18.73;12.63;;;22.60;99.90;;;;;;4844167;29;20053;-79
2022/06/05 05:04:01;;;;;;;18.40;12.35;;;22.60;99.90;;;;;;4843614;29;20057;-79
2022/06/05 05:06:47;;;;;;;21.08;12.35;;;22.60;99.90;;;;;;4843697;29;20061;-81
2022/06/05 05:09:33;;;;;;;16.15;11.77;;;22.70;99.90;;;;;;4843876;29;20049;-79
2022/06/05 05:12:19;;;;;;;16.88;11.32;;;22.60;99.90;;;;;;4843186;29;20057;-78
2022/06/05 05:15:06;;;;;;;16.30;11.65;;;22.70;99.90;;;;;;4843319;29;20057;-79
2022/06/05 05:17:51;;;;;;;18.58;10.90;;;22.80;99.90;;;;;;4843108;29;20145;-79
2022/06/05 05:20:37;;;;;;;16.73;11.63;;;22.80;99.90;;;;;;4843541;29;20516;-79
2022/06/05 05:23:23;;;;;;;20.40;10.82;;;22.80;99.90;;;;;;4843123;29;20094;-79
2022/06/05 05:26:15;;;;;;;17.42;9.73;;;22.80;99.90;;;;;;4859509;29;20060;-79
2022/06/05 05:29:04;;;;;;;15.57;9.45;;;22.80;99.90;;;;;;4861496;29;20049;-81
2022/06/05 05:31:50;;;;;;;13.43;9.18;;;22.80;99.90;;;;;;4861768;29;20148;-81
2022/06/05 05:34:37;;;;;;;17.50;8.93;;;22.80;99.90;;;;;;4861337;29;20680;-82
2022/06/05 05:37:23;;;;;;;14.85;8.70;;;22.90;99.90;;;;;;4861612;29;20766;-81
2022/06/05 05:43:14;;;;;;;14.57;9.20;;;23.10;99.90;;;;;;4861213;29;20066;-79
2022/06/05 05:46:00;;;;;;;17.25;8.82;;;23.20;99.90;;;;;;4861666;29;20515;-79
2022/06/05 05:48:46;;;;;;;13.38;8.02;;;23.30;99.90;;;;;;4861464;29;20065;-79
2022/06/05 05:51:33;;;;;;;13.55;8.27;;;23.50;99.90;;;;;;4861039;29;20082;-79
2022/06/05 05:54:19;;;;;;;15.00;8.23;;;23.50;99.90;;;;;;4861173;29;20528;-79
2022/06/05 05:57:06;;;;;;;15.52;9.10;;;23.60;99.90;;;;;;4860337;29;20125;-77
2022/06/05 05:59:52;;;;;;;12.55;7.90;;;23.60;99.90;;;;;;4861083;29;20203;-80
2022/06/05 06:02:38;;;;;;;17.40;8.73;;;23.60;99.90;;;;;;4859954;29;20516;-80
2022/06/05 06:05:24;;;;;;;15.43;8.88;;;23.60;99.90;;;;;;4861665;29;20549;-78
2022/06/05 06:08:10;;;;;;;15.52;8.70;;;23.70;99.90;;;;;;4860866;29;20052;-79
2022/06/05 06:10:56;;;;;;;13.65;9.52;;;23.70;99.90;;;;;;4860962;29;20052;-80
2022/06/05 06:13:42;;;;;;;16.98;8.85;;;23.80;99.90;;;;;;4860867;29;20060;-79
2022/06/05 06:16:29;;;;;;;16.48;9.27;;;23.90;99.90;;;;;;4860687;29;20061;-78
2022/06/05 06:19:14;;;;;;;16.30;9.52;;;24.00;99.90;;;;;;4860653;29;20057;-79
2022/06/05 06:22:00;;;;;;;14.57;9.25;;;24.10;99.90;;;;;;4861037;29;20064;-79
2022/06/05 06:24:47;;;;;;;17.08;9.65;;;24.10;99.90;;;;;;4856382;29;20049;-79
2022/06/05 06:27:33;;;;;;;15.18;9.85;;;24.10;99.90;;;;;;4842080;29;20060;-79
2022/06/05 06:30:19;;;;;;;14.77;9.32;;;24.10;99.90;;;;;;4842423;29;20114;-79
2022/06/05 06:33:05;;;;;;;21.65;9.13;;;24.30;99.90;;;;;;4842213;29;20179;-78
2022/06/05 06:35:50;;;;;;;16.38;9.63;;;24.40;99.90;;;;;;4842224;29;20584;-78
2022/06/05 06:38:36;;;;;;;16.95;8.98;;;24.30;99.90;;;;;;4842061;29;20052;-78
2022/06/05 06:41:22;;;;;;;17.35;9.30;;;24.50;99.90;;;;;;4841874;29;20152;-80
2022/06/05 06:44:08;;;;;;;14.98;8.93;;;24.50;99.90;;;;;;4841970;29;20090;-80
2022/06/05 06:46:54;;;;;;;15.82;9.60;;;24.50;99.90;;;;;;4841686;29;20106;-79
2022/06/05 06:49:40;;;;;;;15.38;9.57;;;24.60;99.90;;;;;;4841192;29;20065;-79
2022/06/05 06:52:26;;;;;;;15.13;9.10;;;24.70;99.90;;;;;;4841260;29;20086;-79
2022/06/05 06:55:16;;;;;;;19.00;9.05;;;24.80;99.90;;;;;;4842108;29;20065;-80
2022/06/05 06:58:02;;;;;;;14.90;9.27;;;24.80;99.90;;;;;;4840773;29;20053;-79
2022/06/05 07:00:48;;;;;;;18.48;9.63;;;25.00;99.90;;;;;;4840813;29;20064;-80
2022/06/05 07:03:34;;;;;;;13.88;9.18;;;25.10;99.90;;;;;;4841604;29;20106;-79
2022/06/05 07:06:20;;;;;;;17.83;9.38;;;25.10;99.90;;;;;;4842038;29;20053;-80
2022/06/05 07:09:06;;;;;;;16.67;9.57;;;25.30;99.90;;;;;;4841047;29;20065;-79
2022/06/05 07:11:52;;;;;;;16.58;10.10;;;25.30;99.90;;;;;;4841724;29;20057;-80
2022/06/05 07:14:38;;;;;;;22.23;9.48;;;25.40;99.90;;;;;;4841466;29;20053;-79
2022/06/05 07:17:26;;;;;;;15.73;9.00;;;25.60;99.90;;;;;;4841202;29;20061;-79
2022/06/05 07:20:12;;;;;;;14.43;9.95;;;25.60;99.90;;;;;;4840584;29;20187;-80
2022/06/05 07:22:58;;;;;;;19.27;9.23;;;25.70;99.90;;;;;;4840658;29;20153;-80
2022/06/05 07:25:47;;;;;;;21.10;8.70;;;25.60;99.90;;;;;;4851082;29;20463;-79
2022/06/05 07:28:33;;;;;;;17.52;9.07;;;25.70;99.90;;;;;;4859523;29;20077;-80
2022/06/05 07:31:19;;;;;;;15.70;9.48;;;25.90;99.90;;;;;;4859939;29;20061;-81
2022/06/05 07:34:07;;;;;;;20.20;10.93;;;25.90;99.90;;;;;;4859402;29;20064;-80
2022/06/05 07:36:53;;;;;;;15.45;9.23;;;25.90;99.90;;;;;;4859694;29;20089;-80
2022/06/05 07:39:40;;;;;;;18.90;9.20;;;26.00;99.90;;;;;;4859328;29;20053;-82
2022/06/05 07:42:27;;;;;;;15.23;8.90;;;26.10;99.90;;;;;;4859974;29;20578;-79
2022/06/05 07:45:15;;;;;;;13.93;8.68;;;26.20;99.90;;;;;;4860018;29;20526;-79
2022/06/05 07:48:01;;;;;;;14.30;9.50;;;26.30;99.90;;;;;;4858167;29;20185;-82
2022/06/05 07:54:26;;;;;;;16.27;8.68;;;26.40;99.90;;;;;;4859906;29;20053;-79
2022/06/05 07:57:05;;;;;;;15.25;8.48;;;26.50;99.90;;;;;;4859580;29;20056;-78
2022/06/05 07:59:51;;;;;;;15.38;9.25;;;26.60;99.90;;;;;;4848293;29;20053;-79
2022/06/05 08:02:38;;;;;;;16.33;9.40;;;26.70;99.90;;;;;;4848931;29;20130;-80
2022/06/05 08:05:24;;;;;;;13.02;7.57;;;26.70;99.90;;;;;;4849812;29;20437;-79
2022/06/05 08:08:09;;;;;;;21.63;12.40;;;26.80;99.90;;;;;;4847494;29;20159;-78
2022/06/05 08:11:03;;;;;;;20.55;15.63;;;27.00;99.90;;;;;;4848511;29;20057;-77
2022/06/05 08:13:55;;;;;;;;;;;27.10;99.90;;;;;;4846919;29;20517;-80
2022/06/05 08:16:43;;;;;;;38.80;28.13;;;27.20;99.90;;;;;;4849192;29;19932;-80
2022/06/05 08:19:30;;;;;;;32.58;25.30;;;27.20;99.90;;;;;;4849866;29;20402;-78
2022/06/05 08:22:19;;;;;;;17.27;11.55;;;27.20;99.90;;;;;;4850550;29;20154;-79
2022/06/05 08:25:05;;;;;;;33.38;23.60;;;27.20;99.90;;;;;;4847523;29;20177;-78
2022/06/05 08:27:51;;;;;;;35.45;18.40;;;27.30;99.90;;;;;;4847640;29;20057;-78
2022/06/05 08:30:38;;;;;;;67.13;48.72;;;27.40;99.90;;;;;;4812791;29;20050;-79
2022/06/05 08:33:23;;;;;;;20.02;14.15;;;27.40;99.90;;;;;;4815014;29;20515;-79
2022/06/05 08:36:09;;;;;;;21.23;11.32;;;27.30;99.90;;;;;;4816920;29;20057;-78
2022/06/05 08:42:21;;;;;;;19.02;10.77;;;27.50;99.90;;;;;;4816533;29;20057;-77
2022/06/05 08:45:23;;;;;;;13.18;8.73;;;27.30;99.90;;;;;;4813518;29;20125;-78
2022/06/05 08:48:27;;;;;;;20.33;10.10;;;27.50;99.90;;;;;;4825205;29;20138;-78
2022/06/05 08:51:27;;;;;;;12.27;8.80;;;27.50;99.90;;;;;;4825377;29;20529;-77
2022/06/05 08:54:17;;;;;;;13.80;8.27;;;27.40;99.90;;;;;;4825176;29;20118;-78
2022/06/05 08:57:10;;;;;;;16.30;8.82;;;27.50;99.90;;;;;;4825906;29;20065;-77
2022/06/05 09:00:16;;;;;;;13.75;9.30;;;27.50;99.90;;;;;;4825218;29;20259;-77
2022/06/05 09:03:24;;;;;;;16.45;8.32;;;27.50;99.90;;;;;;4824368;29;20069;-77
2022/06/05 09:06:44;;;;;;;15.00;9.18;;;27.70;99.90;;;;;;4825892;29;20234;-78
2022/06/05 09:09:47;;;;;;;23.27;10.55;;;27.60;99.90;;;;;;4823128;29;20050;-78
2022/06/05 09:12:38;;;;;;;14.40;9.50;;;27.80;99.90;;;;;;4825176;29;20061;-76
2022/06/05 09:15:37;;;;;;;14.88;9.38;;;27.70;99.90;;;;;;4824910;29;20521;-78
2022/06/05 09:18:25;;;;;;;23.63;14.93;;;27.90;99.70;;;;;;4825302;29;20098;-80
2022/06/05 09:21:18;;;;;;;36.83;26.52;;;27.90;99.80;;;;;;4822403;29;20142;-78
2022/06/05 09:24:23;;;;;;;16.55;10.18;;;28.00;99.70;;;;;;4820266;29;20066;-79
2022/06/05 09:27:50;;;;;;;20.35;8.93;;;28.30;98.30;;;;;;4807763;29;20438;-77
2022/06/05 09:30:45;;;;;;;13.90;9.02;;;28.70;98.00;;;;;;4825288;29;20130;-77
2022/06/05 09:33:38;;;;;;;17.27;9.55;;;28.70;98.20;;;;;;4829407;29;20057;-77
2022/06/05 09:36:27;;;;;;;15.77;9.20;;;28.80;97.80;;;;;;4841431;29;20065;-78
2022/06/05 09:39:22;;;;;;;11.60;9.00;;;28.80;97.10;;;;;;4842836;29;20049;-76
2022/06/05 09:42:41;;;;;;;14.63;10.52;;;29.00;97.80;;;;;;4842734;29;20060;-77
2022/06/05 09:45:53;;;;;;;15.07;8.80;;;29.10;97.60;;;;;;4841832;29;20061;-77
2022/06/05 09:48:38;;;;;;;42.28;35.92;;;29.10;96.00;;;;;;4842369;29;20129;-78
2022/06/05 09:51:25;;;;;;;15.25;11.35;;;29.10;96.00;;;;;;4842971;29;20171;-78
2022/06/05 09:54:22;;;;;;;32.50;26.65;;;29.20;95.30;;;;;;4842004;29;20202;-76
2022/06/05 10:00:37;;;;;;;18.90;13.73;;;29.50;95.30;;;;;;4832834;29;20056;-77
2022/06/05 10:03:37;;;;;;;87.97;61.15;;;29.60;94.70;;;;;;4833187;29;20282;-78
2022/06/05 10:06:47;;;;;;;22.17;13.50;;;29.70;94.00;;;;;;4832684;29;20419;-77
2022/06/05 10:09:35;;;;;;;17.67;8.30;;;29.50;93.90;;;;;;4839356;29;20138;-77
2022/06/05 10:12:33;;;;;;;12.23;7.88;;;29.80;93.70;;;;;;4842210;29;20586;-77
2022/06/05 10:15:43;;;;;;;12.40;8.15;;;30.00;92.40;;;;;;4835526;29;20057;-77
2022/06/05 10:18:53;;;;;;;44.50;31.23;;;30.10;92.50;;;;;;4824122;29;20056;-80
2022/06/05 10:21:47;;;;;;;40.40;33.00;;;30.20;91.70;;;;;;4823469;29;20524;-78
2022/06/05 10:25:05;;;;;;;15.52;9.80;;;29.80;91.10;;;;;;4823877;29;20103;-78
2022/06/05 10:28:18;;;;;;;15.32;7.15;;;29.80;91.20;;;;;;4823062;29;20066;-79
2022/06/05 10:31:22;;;;;;;12.65;7.57;;;30.20;91.00;;;;;;4836098;29;20141;-80
2022/06/05 10:34:30;;;;;;;11.68;7.38;;;30.40;90.30;;;;;;4830360;29;20119;-78
2022/06/05 10:38:18;;;;;;;12.50;6.60;;;30.50;90.20;;;;;;4831635;29;20118;-77
2022/06/05 10:41:37;;;;;;;11.48;7.07;;;30.60;88.30;;;;;;4793675;29;20135;-77
2022/06/05 10:44:58;;;;;;;13.02;6.50;;;30.50;86.10;;;;;;4795514;29;20066;-79
2022/06/05 10:47:56;;;;;;;12.65;6.93;;;30.90;85.20;;;;;;4830858;29;20155;-80
2022/06/05 10:51:00;;;;;;;11.60;6.25;;;30.60;84.60;;;;;;4831663;29;20122;-78
2022/06/05 10:54:14;;;;;;;11.82;6.28;;;31.00;84.20;;;;;;4831773;29;20057;-76
2022/06/05 10:57:08;;;;;;;9.18;5.93;;;30.90;81.80;;;;;;4831094;29;20118;-77
2022/06/05 11:00:03;;;;;;;11.45;7.32;;;31.00;81.80;;;;;;4830551;29;20177;-80
2022/06/05 11:03:15;;;;;;;59.20;43.40;;;31.10;83.30;;;;;;4823718;29;20142;-78
2022/06/05 11:06:25;;;;;;;18.45;11.77;;;30.90;85.30;;;;;;4823265;29;20406;-79
2022/06/05 11:09:31;;;;;;;29.35;18.83;;;31.20;85.20;;;;;;4824188;29;20073;-78
2022/06/05 11:16:09;;;;;;;19.55;11.45;;;31.20;84.40;;;;;;4857509;29;20061;-81
2022/06/05 11:19:08;;;;;;;16.65;8.63;;;31.30;85.20;;;;;;4844383;29;20053;-82
2022/06/05 11:21:56;;;;;;;15.27;10.73;;;31.50;84.20;;;;;;4823170;29;20068;-78
2022/06/05 11:24:51;;;;;;;17.67;9.38;;;31.60;83.30;;;;;;4822981;29;20061;-78
2022/06/05 11:27:53;;;;;;;21.33;13.32;;;31.40;82.80;;;;;;4840029;29;20061;-78
2022/06/05 11:31:11;;;;;;;12.48;7.68;;;31.10;84.40;;;;;;4850874;29;20442;-78
2022/06/05 11:34:09;;;;;;;18.33;11.80;;;31.20;85.00;;;;;;4866317;29;20065;-78
2022/06/05 11:37:17;;;;;;;13.95;7.45;;;31.30;84.10;;;;;;4843101;29;20056;-79
2022/06/05 11:40:22;;;;;;;15.25;8.85;;;31.50;84.50;;;;;;4840961;29;20108;-77
2022/06/05 11:43:14;;;;;;;13.10;8.13;;;31.70;83.50;;;;;;4840588;29;20060;-77
2022/06/05 11:46:03;;;;;;;19.25;7.85;;;31.60;82.70;;;;;;4841306;29;20179;-76
2022/06/05 11:49:05;;;;;;;11.97;6.80;;;31.60;83.00;;;;;;4841480;29;20049;-78
2022/06/05 11:52:17;;;;;;;13.35;7.38;;;31.80;82.00;;;;;;4852943;29;20061;-79
2022/06/05 11:55:21;;;;;;;12.15;6.60;;;31.50;81.50;;;;;;4859061;29;20208;-78
2022/06/05 11:58:17;;;;;;;10.60;6.85;;;31.60;81.00;;;;;;4845449;29;20617;-78
2022/06/05 12:01:10;;;;;;;14.70;7.78;;;31.80;80.60;;;;;;4857958;29;20149;-78
2022/06/05 12:04:19;;;;;;;10.18;5.88;;;31.80;80.80;;;;;;4859174;29;20109;-78
2022/06/05 12:07:06;;;;;;;12.18;6.22;;;32.50;78.60;;;;;;4859317;29;20523;-78
2022/06/05 12:10:06;;;;;;;12.45;6.72;;;32.60;77.90;;;;;;4863162;29;20189;-78
2022/06/05 12:13:30;;;;;;;17.67;8.00;;;32.70;77.30;;;;;;4862789;29;20057;-77
2022/06/05 12:17:08;;;;;;;15.18;6.60;;;32.40;78.60;;;;;;4861785;29;20059;-79
2022/06/05 12:20:08;;;;;;;53.47;42.70;;;32.50;75.00;;;;;;4824828;29;20054;-85
2022/06/05 12:23:00;;;;;;;26.50;16.50;;;32.10;74.40;;;;;;4862373;29;20064;-84
2022/06/05 12:26:03;;;;;;;21.10;13.82;;;32.40;74.50;;;;;;4861930;29;20517;-84
2022/06/05 12:29:41;;;;;;;44.45;32.40;;;32.20;74.40;;;;;;4857658;29;20179;-88
2022/06/05 12:33:16;;;;;;;17.10;14.15;;;32.40;74.00;;;;;;5338191;23;20038;-86
2022/06/05 12:36:26;;;;;;;19.10;11.43;;;32.50;73.30;;;;;;4880253;29;20056;-85
2022/06/05 12:39:17;;;;;;;;;;;32.50;71.70;;;;;;4880513;29;20051;-85
2022/06/05 12:42:26;;;;;;;20.65;12.52;;;32.40;72.20;;;;;;4897309;23;20371;-85
2022/06/05 12:45:32;;;;;;;13.20;8.77;;;32.30;70.80;;;;;;4898685;29;20572;-86
2022/06/05 12:49:02;;;;;;;16.90;10.23;;;32.20;70.20;;;;;;4823106;29;20061;-86
2022/06/05 12:52:44;;;;;;;16.77;10.93;;;32.60;72.70;;;;;;4823057;29;20120;-85
2022/06/05 12:55:45;;;;;;;10.18;6.88;;;32.70;71.30;;;;;;4823849;29;20518;-86
2022/06/05 12:58:58;;;;;;;17.55;8.00;;;32.50;69.60;;;;;;4811749;29;20081;-81
2022/06/05 13:02:16;;;;;;;14.70;10.77;;;32.60;70.20;;;;;;4823224;29;20451;-81
2022/06/05 13:05:32;;;;;;;82.00;60.38;;;32.60;70.60;;;;;;4829807;29;20207;-83
2022/06/05 13:08:55;;;;;;;49.22;39.42;;;32.70;70.40;;;;;;4898291;29;20055;-79
2022/06/05 13:19:08;;;;;;;32.38;22.52;;;32.90;70.20;;;;;;4898699;29;20055;-82
2022/06/05 13:22:47;;;;;;;12.15;9.00;;;32.80;70.80;;;;;;4897921;29;20135;-83
2022/06/05 13:30:48;;;;;;;15.77;7.70;;;32.70;68.80;;;;;;4898310;29;20427;-83
2022/06/05 13:34:30;;;;;;;11.35;7.78;;;32.90;69.80;;;;;;4897538;29;20051;-83
2022/06/05 13:41:12;;;;;;;14.57;6.57;;;32.90;68.50;;;;;;4859692;29;20040;-83
2022/06/05 13:44:30;;;;;;;11.75;6.50;;;32.70;68.90;;;;;;4860494;29;20056;-86
2022/06/05 13:48:11;;;;;;;12.70;8.35;;;32.80;67.70;;;;;;4856350;29;20119;-88
2022/06/05 13:51:14;;;;;;;12.02;7.63;;;32.80;70.00;;;;;;4856103;29;20501;-90
2022/06/05 14:05:17;;;;;;;12.55;7.00;;;32.20;68.20;;;;;;4823149;29;20045;-85
2022/06/05 14:12:02;;;;;;;14.80;7.00;;;32.20;66.00;;;;;;4888922;29;20088;-88
2022/06/05 14:14:52;;;;;;;8.43;5.75;;;31.70;70.50;;;;;;4893981;23;20558;-85
2022/06/05 14:17:44;;;;;;;12.30;6.53;;;31.60;68.70;;;;;;4885985;29;20072;-87
2022/06/05 14:24:46;;;;;;;11.88;5.50;;;31.90;68.60;;;;;;4847596;29;20052;-86
2022/06/05 14:27:53;;;;;;;11.15;6.38;;;32.00;69.30;;;;;;4862517;29;20053;-87
2022/06/05 14:34:07;;;;;;;11.77;5.85;;;32.20;68.30;;;;;;4854255;29;20113;-88
2022/06/05 14:37:20;;;;;;;7.43;5.20;;;32.10;68.00;;;;;;4867918;29;20051;-83
2022/06/05 14:45:17;;;;;;;10.02;5.15;;;31.90;68.60;;;;;;4973020;23;20055;-88
2022/06/05 14:48:38;;;;;;;10.55;5.07;;;32.20;67.90;;;;;;4885492;29;20056;-85
2022/06/05 14:51:53;;;;;;;9.82;5.18;;;32.00;69.00;;;;;;4885297;29;20092;-87
2022/06/05 14:59:09;;;;;;;9.50;4.72;;;32.00;69.80;;;;;;4984288;23;20109;-86
2022/06/05 15:06:01;;;;;;;8.32;4.63;;;32.00;70.00;;;;;;4872102;29;20092;-86
2022/06/05 15:20:01;;;;;;;10.02;4.78;;;32.30;69.20;;;;;;4777229;29;20507;-88
2022/06/05 15:26:53;;;;;;;10.10;4.30;;;32.00;70.90;;;;;;5028105;23;20041;-85
2022/06/05 15:30:23;;;;;;;11.65;5.10;;;32.10;69.30;;;;;;4897399;29;20059;-87
2022/06/05 15:33:24;;;;;;;8.80;4.60;;;32.00;70.90;;;;;;4879154;29;20800;-86
2022/06/05 15:36:22;;;;;;;8.65;4.25;;;32.00;71.00;;;;;;4888038;29;20052;-83
2022/06/05 15:39:42;;;;;;;11.18;4.82;;;31.90;69.60;;;;;;4887445;29;20539;-83
2022/06/05 15:42:38;;;;;;;15.50;4.60;;;31.80;70.00;;;;;;4877271;29;20186;-85
2022/06/05 15:45:55;;;;;;;14.60;4.30;;;31.60;69.70;;;;;;4883849;29;20052;-81
2022/06/05 15:49:12;;;;;;;8.50;4.22;;;31.50;70.70;;;;;;4866276;29;20180;-86
2022/06/05 15:55:39;;;;;;;7.72;4.00;;;31.10;72.80;;;;;;4878779;29;20454;-84
2022/06/05 15:58:50;;;;;;;9.32;4.13;;;31.10;72.90;;;;;;4891777;29;20163;-83
2022/06/05 16:01:39;;;;;;;6.47;4.30;;;31.00;72.30;;;;;;4888319;29;20068;-84
2022/06/05 16:04:36;;;;;;;7.43;3.70;;;30.90;72.90;;;;;;4877985;29;20068;-84
2022/06/05 16:07:39;;;;;;;10.43;4.55;;;30.80;73.10;;;;;;4881102;29;20044;-86
2022/06/05 16:10:32;;;;;;;8.20;4.97;;;30.80;73.60;;;;;;4880936;29;20055;-85
2022/06/05 16:13:21;;;;;;;7.65;4.00;;;30.70;73.20;;;;;;4892688;29;20067;-84
2022/06/05 16:16:40;;;;;;;9.70;4.15;;;30.70;73.10;;;;;;4893475;29;20071;-87
2022/06/05 16:19:43;;;;;;;8.15;4.05;;;30.60;73.00;;;;;;4998252;23;20063;-86
2022/06/05 16:22:58;;;;;;;10.20;4.00;;;30.60;73.20;;;;;;4844071;29;20052;-85
2022/06/05 16:26:27;;;;;;;8.25;3.90;;;30.60;73.10;;;;;;4853249;29;20525;-85
2022/06/05 16:29:56;;;;;;;10.25;4.07;;;31.30;71.80;;;;;;4856511;29;20521;-83
2022/06/05 16:40:29;;;;;;;8.52;3.95;;;31.00;72.60;;;;;;4887050;29;20076;-88